Terminal Aerodrome Forecast
Issued by NWS Cleveland, OH

Home | Current Version | Previous Version | Text Only | Print | Product List | Glossary On
Versions: 1 2 3 4 5 6 7 8 9 10 11 12 13 14 15 16 17
856
FTUS41 KCLE 301122
TAFCAK
TAF
KCAK 301122Z 3012/3112 36004KT 3SM BR VCSH BKN080
     FM301500 20004KT P6SM VCSH SCT035 BKN080
     FM301800 22006KT P6SM VCTS BKN035CB
     FM302300 16006KT P6SM -TSRA BKN035CB
     FM310200 10005KT 4SM BR SCT250
     FM311100 24004KT 2SM BR OVC003=

USA.gov is the U.S. government's official web portal to all federal, state and local government web resources and services.